Fairwind — 3EIH2 — position and weather

sailwx.info

Track history (hours):
 
Tides and Currents Weather Stations Pressure Air Temp Water Temp Dewpoint Dewpoint Depression Visibility Wind Speed Wind Dir Waves Ship Positions

Fairwind

Last reported at 2017-Oct-22 06:00 UTC. Time now 2017-Oct-22 06:14 UTC.
Position N 35°26' E 139°43'.

Length 84 m; draft 4.8 m.

Type: Cargo ship. MMSI: 372180000.

Date/timePositionNaut miles runAvg speedWind from/ knotsBaromVisibWave heightAir tempDewpointWater temp
2017-Oct-22 06:00N 35°26' E 139°43'0 0.0
2017-Oct-22 05:30N 35°26' E 139°43'0 0.0
2017-Oct-22 05:00N 35°26' E 139°43'0 0.0
2017-Oct-22 04:30N 35°26' E 139°43'0 0.0
2017-Oct-22 04:00N 35°26' E 139°43'0 0.0
2017-Oct-22 03:30N 35°26' E 139°43'0 0.0
2017-Oct-22 03:00N 35°26' E 139°43'0 0.0
2017-Oct-22 02:30N 35°26' E 139°43'0 0.0
2017-Oct-22 02:00N 35°26' E 139°43'0 0.0
2017-Oct-22 01:29N 35°26' E 139°43'0 0.1
2017-Oct-22 00:59N 35°26' E 139°43'0 0.0
2017-Oct-22 00:26N 35°26' E 139°43'0 0.1
2017-Oct-21 23:59N 35°26' E 139°43'0 0.0
2017-Oct-21 23:29N 35°26' E 139°43'0 0.0
2017-Oct-21 22:59N 35°26' E 139°43'0 0.0
2017-Oct-21 22:29N 35°26' E 139°43'0 0.0
2017-Oct-21 22:00N 35°26' E 139°43'0 0.0
2017-Oct-21 21:30N 35°26' E 139°43'0 0.0
2017-Oct-21 20:57N 35°26' E 139°43'0 0.0
2017-Oct-21 20:24N 35°26' E 139°43'0 0.0
2017-Oct-21 20:00N 35°26' E 139°43'0 0.0
2017-Oct-21 19:30N 35°26' E 139°43'0 0.0
2017-Oct-21 19:00N 35°26' E 139°43'0 0.1
2017-Oct-21 18:30N 35°26' E 139°43'0 0.1
2017-Oct-21 18:00N 35°26' E 139°43'0 0.0
2017-Oct-21 17:27N 35°26' E 139°43'0 0.0
2017-Oct-21 17:00N 35°26' E 139°43'0 0.0
2017-Oct-21 16:30N 35°26' E 139°43'0 0.0
2017-Oct-21 16:00N 35°26' E 139°43'0 0.0
2017-Oct-21 15:30N 35°26' E 139°43'0 0.0
2017-Oct-21 15:00N 35°26' E 139°43'0 0.0
2017-Oct-21 14:00N 35°26' E 139°43'0 0.0
2017-Oct-21 13:30N 35°26' E 139°43'0 0.0
2017-Oct-21 13:00N 35°26' E 139°43'0 0.0
2017-Oct-21 12:27N 35°26' E 139°43'0 0.0
2017-Oct-21 12:00N 35°26' E 139°43'0 0.0
2017-Oct-21 11:30N 35°26' E 139°43'0 0.0
2017-Oct-21 10:57N 35°26' E 139°43'0 0.0
2017-Oct-21 10:30N 35°26' E 139°43'0 0.0
2017-Oct-21 10:00N 35°26' E 139°43'0 0.1
2017-Oct-21 09:30N 35°26' E 139°43'0 0.1
2017-Oct-21 09:00N 35°26' E 139°43'0 0.1
2017-Oct-21 08:30N 35°26' E 139°43'0 0.0
2017-Oct-21 08:00N 35°26' E 139°43'0 0.0
2017-Oct-21 07:30N 35°26' E 139°43'0 0.0
2017-Oct-21 07:00N 35°26' E 139°43'0 0.0
2017-Oct-21 06:30N 35°26' E 139°43'0 0.0
2017-Oct-21 06:00N 35°26' E 139°43'0 0.0
2017-Oct-21 05:27N 35°27' E 139°43'1 1.4
2017-Oct-21 05:00N 35°26' E 139°44'4 9.0
2017-Oct-21 04:30N 35°28' E 139°49'510.8
2017-Oct-21 04:00N 35°31' E 139°54'2 0.1
2017-Oct-20 05:21N 35°32' E 139°56'410.7
2017-Oct-20 04:59N 35°29' E 139°53'510.3
2017-Oct-20 04:30N 35°26' E 139°49'5 9.8
2017-Oct-20 04:00N 35°22' E 139°45'5 9.2
2017-Oct-20 03:31N 35°17' E 139°45'5 9.0
2017-Oct-20 03:00N 35°13' E 139°47'5 9.2
2017-Oct-20 02:31N 35°08' E 139°47'4 8.8
2017-Oct-20 02:00N 35°05' E 139°44'5 9.2
2017-Oct-20 01:30N 35°02' E 139°39'5 9.1
2017-Oct-20 01:00N 34°59' E 139°35'5 9.4
2017-Oct-20 00:28N 34°56' E 139°30'229 5.6
2017-Oct-18 07:27N 34°06' E 134°59'511.2
2017-Oct-18 07:00N 34°11' E 134°58'1711.2
2017-Oct-18 05:30N 34°26' E 135°06'611.9
2017-Oct-18 05:00N 34°30' E 135°11'611.3
2017-Oct-18 04:30N 34°34' E 135°16'611.4
2017-Oct-18 04:00N 34°38' E 135°22'2 2.5
2017-Oct-18 03:08N 34°38' E 135°25'0 0.0
2017-Oct-18 02:08N 34°38' E 135°25'0 0.0
2017-Oct-18 01:56N 34°38' E 135°25'0 0.0
2017-Oct-18 01:26N 34°38' E 135°25'0 0.0
2017-Oct-18 00:38N 34°38' E 135°25'0 0.0
2017-Oct-18 00:20N 34°38' E 135°25'0 0.0
2017-Oct-17 21:47N 34°38' E 135°25'0 1.0
2017-Oct-17 21:30N 34°38' E 135°24'1 1.7
2017-Oct-17 20:46N 34°37' E 135°23'0 0.1
2017-Oct-17 20:28N 34°37' E 135°23'0 0.0
2017-Oct-17 20:00N 34°37' E 135°23'0 0.0
2017-Oct-17 19:30N 34°37' E 135°23'0 0.0
2017-Oct-17 19:00N 34°37' E 135°23'0 0.0
2017-Oct-17 18:30N 34°37' E 135°23'0 0.0
2017-Oct-17 18:00N 34°37' E 135°23'0 0.0
2017-Oct-17 17:30N 34°37' E 135°23'0 0.1
2017-Oct-17 16:54N 34°37' E 135°23'0 0.0
2017-Oct-17 16:24N 34°37' E 135°23'0 0.1
2017-Oct-17 16:00N 34°37' E 135°23'0 0.0
2017-Oct-17 15:18N 34°37' E 135°23'0 0.0
2017-Oct-17 15:00N 34°37' E 135°23'0 0.0
2017-Oct-17 14:30N 34°37' E 135°23'0 0.1
2017-Oct-17 13:54N 34°37' E 135°23'0 0.1
2017-Oct-17 13:24N 34°37' E 135°23'0 0.0
2017-Oct-17 13:00N 34°37' E 135°23'0 0.0
2017-Oct-17 12:30N 34°37' E 135°23'0 0.1
2017-Oct-17 12:00N 34°37' E 135°23'0 0.0
2017-Oct-17 11:30N 34°37' E 135°23'0 0.0
2017-Oct-17 10:54N 34°37' E 135°23'0 0.0
2017-Oct-17 10:19N 34°37' E 135°23'0 0.0
2017-Oct-17 06:09N 34°38' E 135°23'0 0.2
2017-Oct-17 05:57N 34°38' E 135°23'0 0.0
2017-Oct-17 05:27N 34°38' E 135°23'0 0.1
2017-Oct-17 04:57N 34°38' E 135°23'0 0.0
2017-Oct-17 04:27N 34°38' E 135°23'0 0.0
2017-Oct-17 03:44N 34°38' E 135°23'0 0.0
2017-Oct-17 01:38N 34°38' E 135°23'0 0.0
2017-Oct-17 01:14N 34°37' E 135°23'0 0.0
2017-Oct-17 00:57N 34°37' E 135°23'0 0.0
2017-Oct-17 00:14N 34°38' E 135°23'0 0.1
2017-Oct-16 23:57N 34°37' E 135°23'0 0.0
2017-Oct-16 23:26N 34°37' E 135°23'0 0.0
2017-Oct-16 22:56N 34°37' E 135°23'0 0.0
2017-Oct-16 22:26N 34°37' E 135°23'0 0.0
2017-Oct-16 21:56N 34°37' E 135°23'0 0.0
2017-Oct-16 21:26N 34°37' E 135°23'0 0.0
2017-Oct-16 20:55N 34°37' E 135°23'0 0.0
2017-Oct-16 20:19N 34°37' E 135°23'0 0.0
2017-Oct-16 19:55N 34°37' E 135°23'0 0.0
2017-Oct-16 19:25N 34°37' E 135°23'0 0.0
2017-Oct-16 18:55N 34°37' E 135°23'0 0.0
2017-Oct-16 18:25N 34°37' E 135°23'0 0.0
2017-Oct-16 18:00N 34°37' E 135°23'0 0.0
2017-Oct-16 17:17N 34°37' E 135°23'0 0.0
2017-Oct-16 16:57N 34°37' E 135°23'0 0.0
2017-Oct-16 16:27N 34°37' E 135°23'0 0.0
2017-Oct-16 15:59N 34°37' E 135°23'0 0.0
2017-Oct-16 15:29N 34°37' E 135°23'0 0.0
2017-Oct-16 14:56N 34°37' E 135°23'0 0.0
2017-Oct-16 13:56N 34°37' E 135°23'0 0.0
2017-Oct-16 13:20N 34°37' E 135°23'0 0.0
2017-Oct-16 12:44N 34°37' E 135°23'0 0.0
2017-Oct-16 12:14N 34°37' E 135°23'0 0.0
2017-Oct-16 11:56N 34°37' E 135°23'0 0.0
2017-Oct-16 11:26N 34°37' E 135°23'0 0.0
2017-Oct-16 10:56N 34°37' E 135°23'0 0.0
2017-Oct-16 10:25N 34°37' E 135°23'0 0.0
2017-Oct-16 09:59N 34°37' E 135°23'0 0.0
2017-Oct-16 09:29N 34°37' E 135°23'0 0.0
2017-Oct-16 08:59N 34°37' E 135°23'0 0.0
2017-Oct-16 08:30N 34°37' E 135°23'0 0.0
2017-Oct-16 07:47N 34°37' E 135°23'0 0.0
2017-Oct-16 07:29N 34°37' E 135°23'0 0.0
2017-Oct-16 06:59N 34°37' E 135°23'0 0.0
2017-Oct-16 06:29N 34°37' E 135°23'0 0.0
2017-Oct-16 05:48N 34°37' E 135°23'0 0.0
2017-Oct-16 05:30N 34°37' E 135°23'0 0.0
2017-Oct-16 04:59N 34°37' E 135°23'0 0.0
2017-Oct-16 04:30N 34°37' E 135°23'0 0.0
2017-Oct-16 03:59N 34°37' E 135°23'0 0.0
2017-Oct-16 03:11N 34°37' E 135°23'0 0.0
2017-Oct-16 02:47N 34°37' E 135°23'0 0.0
2017-Oct-16 02:24N 34°37' E 135°23'0 0.0
2017-Oct-16 01:18N 34°37' E 135°23'0 0.0
2017-Oct-16 00:53N 34°37' E 135°23'0 0.0
2017-Oct-16 00:29N 34°37' E 135°23'0 0.0
2017-Oct-15 23:59N 34°37' E 135°23'0 0.0
2017-Oct-15 23:29N 34°37' E 135°23'0 0.0
2017-Oct-15 22:59N 34°37' E 135°23'0 0.0
2017-Oct-15 22:17N 34°37' E 135°23'0 0.0
2017-Oct-15 21:41N 34°37' E 135°23'0 0.0
2017-Oct-15 21:29N 34°37' E 135°23'0 0.0
2017-Oct-15 20:53N 34°37' E 135°23'0 0.0
2017-Oct-15 20:29N 34°37' E 135°23'0 0.0
2017-Oct-15 19:59N 34°37' E 135°23'0 0.0
2017-Oct-15 19:23N 34°37' E 135°23'0 0.0
2017-Oct-15 18:53N 34°37' E 135°23'0 0.0
2017-Oct-15 18:23N 34°37' E 135°23'0 0.0
2017-Oct-15 17:17N 34°37' E 135°23'0 0.0
2017-Oct-15 16:59N 34°37' E 135°23'1 1.4
2017-Oct-15 16:30N 34°37' E 135°22'5 9.2
2017-Oct-15 16:00N 34°36' E 135°17'611.0
2017-Oct-15 15:30N 34°35' E 135°10'612.1
2017-Oct-15 15:00N 34°36' E 135°03'  
Track history (hours):
 
Tides and Currents Weather Stations Pressure Air Temp Water Temp Dewpoint Dewpoint Depression Visibility Wind Speed Wind Dir Waves Ship Positions

Fairwind

Last reported at 2017-Oct-22 06:00 UTC. Time now 2017-Oct-22 06:14 UTC.
Position N 35°26' E 139°43'.

Length 84 m; draft 4.8 m.

Type: Cargo ship. MMSI: 372180000.

Date/timePositionNaut miles runAvg speedWind from/ knotsBaromVisibWave heightAir tempDewpointWater temp
2017-Oct-22 06:00N 35°26' E 139°43'0 0.0
2017-Oct-22 05:30N 35°26' E 139°43'0 0.0
2017-Oct-22 05:00N 35°26' E 139°43'0 0.0
2017-Oct-22 04:30N 35°26' E 139°43'0 0.0
2017-Oct-22 04:00N 35°26' E 139°43'0 0.0
2017-Oct-22 03:30N 35°26' E 139°43'0 0.0
2017-Oct-22 03:00N 35°26' E 139°43'0 0.0
2017-Oct-22 02:30N 35°26' E 139°43'0 0.0
2017-Oct-22 02:00N 35°26' E 139°43'0 0.0
2017-Oct-22 01:29N 35°26' E 139°43'0 0.1
2017-Oct-22 00:59N 35°26' E 139°43'0 0.0
2017-Oct-22 00:26N 35°26' E 139°43'0 0.1
2017-Oct-21 23:59N 35°26' E 139°43'0 0.0
2017-Oct-21 23:29N 35°26' E 139°43'0 0.0
2017-Oct-21 22:59N 35°26' E 139°43'0 0.0
2017-Oct-21 22:29N 35°26' E 139°43'0 0.0
2017-Oct-21 22:00N 35°26' E 139°43'0 0.0
2017-Oct-21 21:30N 35°26' E 139°43'0 0.0
2017-Oct-21 20:57N 35°26' E 139°43'0 0.0
2017-Oct-21 20:24N 35°26' E 139°43'0 0.0
2017-Oct-21 20:00N 35°26' E 139°43'0 0.0
2017-Oct-21 19:30N 35°26' E 139°43'0 0.0
2017-Oct-21 19:00N 35°26' E 139°43'0 0.1
2017-Oct-21 18:30N 35°26' E 139°43'0 0.1
2017-Oct-21 18:00N 35°26' E 139°43'0 0.0
2017-Oct-21 17:27N 35°26' E 139°43'0 0.0
2017-Oct-21 17:00N 35°26' E 139°43'0 0.0
2017-Oct-21 16:30N 35°26' E 139°43'0 0.0
2017-Oct-21 16:00N 35°26' E 139°43'0 0.0
2017-Oct-21 15:30N 35°26' E 139°43'0 0.0
2017-Oct-21 15:00N 35°26' E 139°43'0 0.0
2017-Oct-21 14:00N 35°26' E 139°43'0 0.0
2017-Oct-21 13:30N 35°26' E 139°43'0 0.0
2017-Oct-21 13:00N 35°26' E 139°43'0 0.0
2017-Oct-21 12:27N 35°26' E 139°43'0 0.0
2017-Oct-21 12:00N 35°26' E 139°43'0 0.0
2017-Oct-21 11:30N 35°26' E 139°43'0 0.0
2017-Oct-21 10:57N 35°26' E 139°43'0 0.0
2017-Oct-21 10:30N 35°26' E 139°43'0 0.0
2017-Oct-21 10:00N 35°26' E 139°43'0 0.1
2017-Oct-21 09:30N 35°26' E 139°43'0 0.1
2017-Oct-21 09:00N 35°26' E 139°43'0 0.1
2017-Oct-21 08:30N 35°26' E 139°43'0 0.0
2017-Oct-21 08:00N 35°26' E 139°43'0 0.0
2017-Oct-21 07:30N 35°26' E 139°43'0 0.0
2017-Oct-21 07:00N 35°26' E 139°43'0 0.0
2017-Oct-21 06:30N 35°26' E 139°43'0 0.0
2017-Oct-21 06:00N 35°26' E 139°43'0 0.0
2017-Oct-21 05:27N 35°27' E 139°43'1 1.4
2017-Oct-21 05:00N 35°26' E 139°44'4 9.0
2017-Oct-21 04:30N 35°28' E 139°49'510.8
2017-Oct-21 04:00N 35°31' E 139°54'2 0.1
2017-Oct-20 05:21N 35°32' E 139°56'410.7
2017-Oct-20 04:59N 35°29' E 139°53'510.3
2017-Oct-20 04:30N 35°26' E 139°49'5 9.8
2017-Oct-20 04:00N 35°22' E 139°45'5 9.2
2017-Oct-20 03:31N 35°17' E 139°45'5 9.0
2017-Oct-20 03:00N 35°13' E 139°47'5 9.2
2017-Oct-20 02:31N 35°08' E 139°47'4 8.8
2017-Oct-20 02:00N 35°05' E 139°44'5 9.2
2017-Oct-20 01:30N 35°02' E 139°39'5 9.1
2017-Oct-20 01:00N 34°59' E 139°35'5 9.4
2017-Oct-20 00:28N 34°56' E 139°30'229 5.6
2017-Oct-18 07:27N 34°06' E 134°59'511.2
2017-Oct-18 07:00N 34°11' E 134°58'1711.2
2017-Oct-18 05:30N 34°26' E 135°06'611.9
2017-Oct-18 05:00N 34°30' E 135°11'611.3
2017-Oct-18 04:30N 34°34' E 135°16'611.4
2017-Oct-18 04:00N 34°38' E 135°22'2 2.5
2017-Oct-18 03:08N 34°38' E 135°25'0 0.0
2017-Oct-18 02:08N 34°38' E 135°25'0 0.0
2017-Oct-18 01:56N 34°38' E 135°25'0 0.0
2017-Oct-18 01:26N 34°38' E 135°25'0 0.0
2017-Oct-18 00:38N 34°38' E 135°25'0 0.0
2017-Oct-18 00:20N 34°38' E 135°25'0 0.0
2017-Oct-17 21:47N 34°38' E 135°25'0 1.0
2017-Oct-17 21:30N 34°38' E 135°24'1 1.7
2017-Oct-17 20:46N 34°37' E 135°23'0 0.1
2017-Oct-17 20:28N 34°37' E 135°23'0 0.0
2017-Oct-17 20:00N 34°37' E 135°23'0 0.0
2017-Oct-17 19:30N 34°37' E 135°23'0 0.0
2017-Oct-17 19:00N 34°37' E 135°23'0 0.0
2017-Oct-17 18:30N 34°37' E 135°23'0 0.0
2017-Oct-17 18:00N 34°37' E 135°23'0 0.0
2017-Oct-17 17:30N 34°37' E 135°23'0 0.1
2017-Oct-17 16:54N 34°37' E 135°23'0 0.0
2017-Oct-17 16:24N 34°37' E 135°23'0 0.1
2017-Oct-17 16:00N 34°37' E 135°23'0 0.0
2017-Oct-17 15:18N 34°37' E 135°23'0 0.0
2017-Oct-17 15:00N 34°37' E 135°23'0 0.0
2017-Oct-17 14:30N 34°37' E 135°23'0 0.1
2017-Oct-17 13:54N 34°37' E 135°23'0 0.1
2017-Oct-17 13:24N 34°37' E 135°23'0 0.0
2017-Oct-17 13:00N 34°37' E 135°23'0 0.0
2017-Oct-17 12:30N 34°37' E 135°23'0 0.1
2017-Oct-17 12:00N 34°37' E 135°23'0 0.0
2017-Oct-17 11:30N 34°37' E 135°23'0 0.0
2017-Oct-17 10:54N 34°37' E 135°23'0 0.0
2017-Oct-17 10:19N 34°37' E 135°23'0 0.0
2017-Oct-17 06:09N 34°38' E 135°23'0 0.2
2017-Oct-17 05:57N 34°38' E 135°23'0 0.0
2017-Oct-17 05:27N 34°38' E 135°23'0 0.1
2017-Oct-17 04:57N 34°38' E 135°23'0 0.0
2017-Oct-17 04:27N 34°38' E 135°23'0 0.0
2017-Oct-17 03:44N 34°38' E 135°23'0 0.0
2017-Oct-17 01:38N 34°38' E 135°23'0 0.0
2017-Oct-17 01:14N 34°37' E 135°23'0 0.0
2017-Oct-17 00:57N 34°37' E 135°23'0 0.0
2017-Oct-17 00:14N 34°38' E 135°23'0 0.1
2017-Oct-16 23:57N 34°37' E 135°23'0 0.0
2017-Oct-16 23:26N 34°37' E 135°23'0 0.0
2017-Oct-16 22:56N 34°37' E 135°23'0 0.0
2017-Oct-16 22:26N 34°37' E 135°23'0 0.0
2017-Oct-16 21:56N 34°37' E 135°23'0 0.0
2017-Oct-16 21:26N 34°37' E 135°23'0 0.0
2017-Oct-16 20:55N 34°37' E 135°23'0 0.0
2017-Oct-16 20:19N 34°37' E 135°23'0 0.0
2017-Oct-16 19:55N 34°37' E 135°23'0 0.0
2017-Oct-16 19:25N 34°37' E 135°23'0 0.0
2017-Oct-16 18:55N 34°37' E 135°23'0 0.0
2017-Oct-16 18:25N 34°37' E 135°23'0 0.0
2017-Oct-16 18:00N 34°37' E 135°23'0 0.0
2017-Oct-16 17:17N 34°37' E 135°23'0 0.0
2017-Oct-16 16:57N 34°37' E 135°23'0 0.0
2017-Oct-16 16:27N 34°37' E 135°23'0 0.0
2017-Oct-16 15:59N 34°37' E 135°23'0 0.0
2017-Oct-16 15:29N 34°37' E 135°23'0 0.0
2017-Oct-16 14:56N 34°37' E 135°23'0 0.0
2017-Oct-16 13:56N 34°37' E 135°23'0 0.0
2017-Oct-16 13:20N 34°37' E 135°23'0 0.0
2017-Oct-16 12:44N 34°37' E 135°23'0 0.0
2017-Oct-16 12:14N 34°37' E 135°23'0 0.0
2017-Oct-16 11:56N 34°37' E 135°23'0 0.0
2017-Oct-16 11:26N 34°37' E 135°23'0 0.0
2017-Oct-16 10:56N 34°37' E 135°23'0 0.0
2017-Oct-16 10:25N 34°37' E 135°23'0 0.0
2017-Oct-16 09:59N 34°37' E 135°23'0 0.0
2017-Oct-16 09:29N 34°37' E 135°23'0 0.0
2017-Oct-16 08:59N 34°37' E 135°23'0 0.0
2017-Oct-16 08:30N 34°37' E 135°23'0 0.0
2017-Oct-16 07:47N 34°37' E 135°23'0 0.0
2017-Oct-16 07:29N 34°37' E 135°23'0 0.0
2017-Oct-16 06:59N 34°37' E 135°23'0 0.0
2017-Oct-16 06:29N 34°37' E 135°23'0 0.0
2017-Oct-16 05:48N 34°37' E 135°23'0 0.0
2017-Oct-16 05:30N 34°37' E 135°23'0 0.0
2017-Oct-16 04:59N 34°37' E 135°23'0 0.0
2017-Oct-16 04:30N 34°37' E 135°23'0 0.0
2017-Oct-16 03:59N 34°37' E 135°23'0 0.0
2017-Oct-16 03:11N 34°37' E 135°23'0 0.0
2017-Oct-16 02:47N 34°37' E 135°23'0 0.0
2017-Oct-16 02:24N 34°37' E 135°23'0 0.0
2017-Oct-16 01:18N 34°37' E 135°23'0 0.0
2017-Oct-16 00:53N 34°37' E 135°23'0 0.0
2017-Oct-16 00:29N 34°37' E 135°23'0 0.0
2017-Oct-15 23:59N 34°37' E 135°23'0 0.0
2017-Oct-15 23:29N 34°37' E 135°23'0 0.0
2017-Oct-15 22:59N 34°37' E 135°23'0 0.0
2017-Oct-15 22:17N 34°37' E 135°23'0 0.0
2017-Oct-15 21:41N 34°37' E 135°23'0 0.0
2017-Oct-15 21:29N 34°37' E 135°23'0 0.0
2017-Oct-15 20:53N 34°37' E 135°23'0 0.0
2017-Oct-15 20:29N 34°37' E 135°23'0 0.0
2017-Oct-15 19:59N 34°37' E 135°23'0 0.0
2017-Oct-15 19:23N 34°37' E 135°23'0 0.0
2017-Oct-15 18:53N 34°37' E 135°23'0 0.0
2017-Oct-15 18:23N 34°37' E 135°23'0 0.0
2017-Oct-15 17:17N 34°37' E 135°23'0 0.0
2017-Oct-15 16:59N 34°37' E 135°23'1 1.4
2017-Oct-15 16:30N 34°37' E 135°22'5 9.2
2017-Oct-15 16:00N 34°36' E 135°17'611.0
2017-Oct-15 15:30N 34°35' E 135°10'612.1
2017-Oct-15 15:00N 34°36' E 135°03'  

Dump ship's entire track history